createdAt,value
2018-07-31T00:01:06.206Z,19.22
2018-07-31T00:03:35.363Z,19.12
2018-07-31T00:06:04.577Z,19.11
2018-07-31T00:08:33.646Z,19.06
2018-07-31T00:11:02.704Z,18.89
2018-07-31T00:13:31.861Z,18.88
2018-07-31T00:16:00.954Z,18.96
2018-07-31T00:18:30.083Z,19.08
2018-07-31T00:20:59.195Z,19.07
2018-07-31T00:23:28.241Z,18.93
2018-07-31T00:25:57.348Z,18.93
2018-07-31T00:28:26.416Z,18.87
2018-07-31T00:30:55.517Z,18.99
2018-07-31T00:33:24.586Z,18.90
2018-07-31T00:35:53.777Z,18.71
2018-07-31T00:38:23.143Z,18.76
2018-07-31T00:40:52.279Z,18.75
2018-07-31T00:43:21.326Z,18.78
2018-07-31T00:45:50.481Z,18.81
2018-07-31T00:48:19.592Z,18.68
2018-07-31T00:50:48.783Z,18.61
2018-07-31T00:53:17.912Z,18.58
2018-07-31T00:55:46.896Z,18.46
2018-07-31T00:58:15.995Z,18.47
2018-07-31T01:00:45.042Z,18.23
2018-07-31T01:03:14.193Z,18.32
2018-07-31T01:05:43.460Z,18.41
2018-07-31T01:08:12.558Z,18.49
2018-07-31T01:10:42.708Z,18.51
2018-07-31T01:13:12.239Z,18.50
2018-07-31T01:15:41.960Z,18.30
2018-07-31T01:18:11.364Z,18.32
2018-07-31T01:20:40.635Z,18.31
2018-07-31T01:23:10.070Z,18.29
2018-07-31T01:25:39.618Z,18.24
2018-07-31T01:28:09.000Z,18.17
2018-07-31T01:30:38.344Z,18.23
2018-07-31T01:33:07.662Z,18.16
2018-07-31T01:35:37.477Z,18.11
2018-07-31T01:38:06.822Z,18.14
2018-07-31T01:40:36.254Z,18.13
2018-07-31T01:43:05.681Z,18.12
2018-07-31T01:45:35.331Z,18.05
2018-07-31T01:48:04.657Z,17.98
2018-07-31T01:50:33.930Z,17.98
2018-07-31T01:53:03.338Z,17.96
2018-07-31T01:55:32.833Z,17.95
2018-07-31T01:58:02.147Z,17.97
2018-07-31T02:00:31.495Z,17.94
2018-07-31T02:03:00.683Z,17.94
2018-07-31T02:05:30.314Z,17.95
2018-07-31T02:07:59.996Z,17.86
2018-07-31T02:10:29.290Z,17.98
2018-07-31T02:12:58.338Z,17.82
2018-07-31T02:15:27.394Z,17.89
2018-07-31T02:17:56.365Z,17.85
2018-07-31T02:20:25.453Z,17.76
2018-07-31T02:22:54.489Z,17.63
2018-07-31T02:25:23.778Z,17.63
2018-07-31T02:27:52.784Z,17.69
2018-07-31T02:30:23.623Z,17.69
2018-07-31T02:32:53.121Z,17.76
2018-07-31T02:35:22.196Z,17.74
2018-07-31T02:37:51.231Z,17.64
2018-07-31T02:40:20.327Z,17.55
2018-07-31T02:42:49.346Z,17.60
2018-07-31T02:45:18.478Z,17.51
2018-07-31T02:47:47.611Z,17.53
2018-07-31T02:50:16.689Z,17.47
2018-07-31T02:52:45.634Z,17.54
2018-07-31T02:55:14.657Z,17.54
2018-07-31T02:57:44.016Z,17.36
2018-07-31T03:00:13.104Z,17.33
2018-07-31T03:02:42.678Z,17.43
2018-07-31T03:05:12.624Z,17.38
2018-07-31T03:07:42.140Z,17.23
2018-07-31T03:10:11.854Z,17.23
2018-07-31T03:12:41.415Z,17.25
2018-07-31T03:15:11.733Z,17.27
2018-07-31T03:17:41.209Z,17.26
2018-07-31T03:20:10.315Z,17.23
2018-07-31T03:22:39.443Z,17.22
2018-07-31T03:25:08.485Z,17.10
2018-07-31T03:27:37.491Z,17.09
2018-07-31T03:30:07.353Z,17.21
2018-07-31T03:32:36.323Z,17.13
2018-07-31T03:35:05.380Z,17.04
2018-07-31T03:37:34.590Z,17.06
2018-07-31T03:40:03.584Z,17.03
2018-07-31T03:42:32.698Z,17.06
2018-07-31T03:45:02.027Z,17.00
2018-07-31T03:47:31.086Z,17.05
2018-07-31T03:50:00.256Z,16.95
2018-07-31T03:52:29.269Z,16.99
2018-07-31T03:55:00.635Z,16.92
2018-07-31T03:57:29.740Z,16.89
2018-07-31T03:59:58.895Z,16.89
2018-07-31T04:02:27.906Z,16.88
2018-07-31T04:04:56.880Z,16.84
2018-07-31T04:07:25.925Z,16.73
2018-07-31T04:09:54.963Z,16.77
2018-07-31T04:12:23.932Z,16.83
2018-07-31T04:14:53.035Z,16.89
2018-07-31T04:17:22.149Z,16.93
2018-07-31T04:19:51.308Z,16.80
2018-07-31T04:22:20.345Z,16.78
2018-07-31T04:24:49.436Z,16.79
2018-07-31T04:27:18.452Z,16.84
2018-07-31T04:29:47.479Z,16.93
2018-07-31T04:32:16.850Z,16.89
2018-07-31T04:34:45.876Z,16.88
2018-07-31T04:37:15.304Z,17.01
2018-07-31T04:39:44.508Z,16.88
2018-07-31T04:42:13.797Z,16.89
2018-07-31T04:44:42.906Z,16.85
2018-07-31T04:47:11.872Z,16.84
2018-07-31T04:49:41.147Z,16.93
2018-07-31T04:52:10.407Z,17.02
2018-07-31T04:54:39.429Z,17.02
2018-07-31T04:57:09.023Z,17.01
2018-07-31T04:59:38.366Z,17.14
2018-07-31T05:02:07.396Z,17.40
2018-07-31T05:04:36.721Z,17.62
2018-07-31T05:07:06.131Z,17.88
2018-07-31T05:09:35.563Z,18.07
2018-07-31T05:12:04.607Z,18.23
2018-07-31T05:14:33.582Z,18.08
2018-07-31T05:17:02.627Z,18.17
2018-07-31T05:19:31.639Z,18.24
2018-07-31T05:22:01.886Z,18.31
2018-07-31T05:24:30.915Z,18.39
2018-07-31T05:26:59.992Z,18.74
2018-07-31T05:29:29.317Z,19.06
2018-07-31T05:31:58.320Z,19.40
2018-07-31T05:34:27.336Z,19.61
2018-07-31T05:36:56.390Z,19.68
2018-07-31T05:39:25.435Z,19.85
2018-07-31T05:41:54.525Z,19.99
2018-07-31T05:44:23.663Z,20.09
2018-07-31T05:46:52.691Z,20.28
2018-07-31T05:49:21.785Z,20.30
2018-07-31T05:51:51.568Z,20.52
2018-07-31T05:54:21.157Z,20.68
2018-07-31T05:56:50.134Z,21.08
2018-07-31T05:59:19.192Z,20.67
2018-07-31T06:01:48.307Z,21.15
2018-07-31T06:04:17.830Z,20.94
2018-07-31T06:06:46.999Z,21.11
2018-07-31T06:09:16.104Z,21.36
2018-07-31T06:11:45.483Z,21.50
2018-07-31T06:14:14.579Z,21.49
2018-07-31T06:16:44.035Z,21.55
2018-07-31T06:19:13.362Z,21.42
2018-07-31T06:21:42.439Z,21.40
2018-07-31T06:24:11.503Z,21.47
2018-07-31T06:26:40.695Z,21.23
2018-07-31T06:29:09.809Z,21.52
2018-07-31T06:31:38.998Z,22.05
2018-07-31T06:34:08.169Z,22.35
2018-07-31T06:36:37.227Z,22.57
2018-07-31T06:39:08.830Z,22.77
2018-07-31T06:41:37.974Z,22.71
2018-07-31T06:44:07.924Z,22.18
2018-07-31T06:46:37.321Z,22.21
2018-07-31T06:49:06.576Z,22.34
2018-07-31T06:51:36.039Z,22.50
2018-07-31T06:54:05.349Z,22.71
2018-07-31T06:56:34.468Z,22.95
2018-07-31T06:59:03.568Z,22.87
2018-07-31T07:01:32.909Z,22.67
2018-07-31T07:04:02.044Z,23.23
2018-07-31T07:06:31.157Z,22.84
2018-07-31T07:09:00.200Z,23.24
2018-07-31T07:11:29.479Z,23.18
2018-07-31T07:13:58.534Z,23.26
2018-07-31T07:16:27.762Z,23.69
2018-07-31T07:18:56.933Z,24.27
2018-07-31T07:21:25.897Z,25.23
2018-07-31T07:23:54.957Z,25.14
2018-07-31T07:26:24.110Z,25.56
2018-07-31T07:28:53.902Z,24.81
2018-07-31T07:31:23.364Z,24.07
2018-07-31T07:33:52.653Z,24.72
2018-07-31T07:36:21.859Z,24.15
2018-07-31T07:38:50.990Z,24.35
2018-07-31T07:41:20.425Z,24.88
2018-07-31T07:43:49.554Z,25.15
2018-07-31T07:46:18.563Z,24.97
2018-07-31T07:48:47.637Z,25.13
2018-07-31T07:51:16.707Z,25.09
2018-07-31T07:53:45.892Z,24.66
2018-07-31T07:56:16.056Z,25.17
2018-07-31T07:58:45.438Z,25.73
2018-07-31T08:01:14.884Z,25.56
2018-07-31T08:03:44.203Z,25.30
2018-07-31T08:06:13.619Z,25.79
2018-07-31T08:08:42.603Z,25.85
2018-07-31T08:11:11.639Z,25.72
2018-07-31T08:13:41.275Z,26.13
2018-07-31T08:16:10.464Z,26.30
2018-07-31T08:18:39.627Z,25.41
2018-07-31T08:21:08.726Z,25.78
2018-07-31T08:23:37.837Z,25.85
2018-07-31T08:26:07.219Z,25.83
2018-07-31T08:28:36.385Z,26.66
2018-07-31T08:31:06.019Z,26.90
2018-07-31T08:33:35.131Z,26.94
2018-07-31T08:36:04.312Z,26.92
2018-07-31T08:38:33.444Z,27.21
2018-07-31T08:41:05.594Z,27.18
2018-07-31T08:43:35.032Z,26.89
2018-07-31T08:46:04.139Z,27.06
2018-07-31T08:48:33.344Z,27.11
2018-07-31T08:51:02.427Z,27.24
2018-07-31T08:53:31.707Z,27.68
2018-07-31T08:56:00.778Z,27.17
2018-07-31T08:58:29.969Z,27.55
2018-07-31T09:00:59.001Z,28.07
2018-07-31T09:03:28.155Z,27.32
2018-07-31T09:05:57.193Z,27.82
2018-07-31T09:08:26.441Z,28.03
2018-07-31T09:10:55.634Z,28.11
2018-07-31T09:13:24.756Z,27.82
2018-07-31T09:15:53.847Z,27.35
2018-07-31T09:18:22.910Z,27.91
2018-07-31T09:20:51.932Z,28.21
2018-07-31T09:23:21.313Z,28.25
2018-07-31T09:25:50.436Z,28.44
2018-07-31T09:28:19.878Z,28.29
2018-07-31T09:31:24.331Z,28.33
2018-07-31T09:33:54.050Z,28.40
2018-07-31T09:36:23.251Z,28.90
2018-07-31T09:38:52.274Z,28.89
2018-07-31T09:41:21.395Z,29.15
2018-07-31T09:43:50.646Z,29.06
2018-07-31T09:46:19.754Z,29.36
2018-07-31T09:48:48.792Z,29.47
2018-07-31T09:51:17.965Z,29.93
2018-07-31T09:53:47.569Z,29.78
2018-07-31T09:56:17.627Z,29.79
2018-07-31T09:58:47.267Z,29.98
2018-07-31T10:01:19.630Z,29.69
2018-07-31T10:03:49.472Z,29.76
2018-07-31T10:06:18.641Z,29.67
2018-07-31T10:08:48.299Z,29.81
2018-07-31T10:11:18.747Z,29.95
2018-07-31T10:13:47.956Z,30.19
2018-07-31T10:16:17.368Z,30.35
2018-07-31T10:18:46.527Z,30.16
2018-07-31T10:21:15.655Z,29.90
2018-07-31T10:23:45.507Z,30.65
2018-07-31T10:26:14.624Z,31.17
2018-07-31T10:28:44.214Z,31.46
2018-07-31T10:31:13.313Z,31.39
2018-07-31T10:33:42.510Z,31.18
2018-07-31T10:36:11.545Z,31.58
2018-07-31T10:38:40.679Z,31.60
2018-07-31T10:41:09.842Z,31.12
2018-07-31T10:43:39.884Z,30.67
2018-07-31T10:46:10.468Z,30.57
2018-07-31T10:48:39.809Z,30.79
2018-07-31T10:51:09.890Z,30.89
2018-07-31T10:53:39.925Z,30.98
2018-07-31T10:56:09.227Z,30.95
2018-07-31T10:58:38.568Z,31.04
2018-07-31T11:01:07.777Z,31.19
2018-07-31T11:03:36.846Z,31.20
2018-07-31T11:06:05.994Z,31.40
2018-07-31T11:08:35.072Z,30.91
2018-07-31T11:11:04.290Z,31.01
2018-07-31T11:13:33.828Z,31.17
2018-07-31T11:16:03.043Z,30.94
2018-07-31T11:18:32.347Z,31.47
2018-07-31T11:21:01.637Z,31.24
2018-07-31T11:23:30.959Z,31.21
2018-07-31T11:26:00.181Z,31.21
2018-07-31T11:28:29.637Z,31.04
2018-07-31T11:30:59.217Z,31.05
2018-07-31T11:33:28.381Z,31.09
2018-07-31T11:35:58.107Z,31.39
2018-07-31T11:38:27.275Z,31.62
2018-07-31T11:40:56.319Z,31.61
2018-07-31T11:43:25.400Z,31.95
2018-07-31T11:45:54.507Z,31.96
2018-07-31T11:48:23.895Z,31.56
2018-07-31T11:50:53.018Z,31.57
2018-07-31T11:53:22.620Z,31.44
2018-07-31T11:55:52.062Z,31.51
2018-07-31T11:58:21.173Z,31.41
2018-07-31T12:00:50.424Z,31.56
2018-07-31T12:03:19.522Z,31.83
2018-07-31T12:05:48.668Z,31.92
2018-07-31T12:08:17.853Z,32.22
2018-07-31T12:10:47.825Z,32.27
2018-07-31T12:13:17.019Z,32.05
2018-07-31T12:15:46.186Z,31.82
2018-07-31T12:18:15.463Z,32.12
2018-07-31T12:20:45.570Z,31.54
2018-07-31T12:23:14.850Z,31.84
2018-07-31T12:25:44.079Z,31.64
2018-07-31T12:28:13.254Z,31.37
2018-07-31T12:30:42.898Z,31.50
2018-07-31T12:33:12.198Z,31.68
2018-07-31T12:35:41.431Z,31.61
2018-07-31T12:38:11.033Z,31.90
2018-07-31T12:40:40.139Z,31.63
2018-07-31T12:43:10.310Z,31.54
2018-07-31T12:45:39.481Z,31.44
2018-07-31T12:48:08.676Z,31.83
2018-07-31T12:50:37.691Z,31.66
2018-07-31T12:53:07.002Z,31.40
2018-07-31T12:55:36.761Z,31.59
2018-07-31T12:58:05.969Z,31.79
2018-07-31T13:00:35.259Z,31.78
2018-07-31T13:03:04.718Z,31.81
2018-07-31T13:05:33.791Z,31.75
2018-07-31T13:08:02.805Z,31.31
2018-07-31T13:10:32.863Z,31.65
2018-07-31T13:13:01.936Z,31.61
2018-07-31T13:15:30.934Z,31.47
2018-07-31T13:17:59.910Z,31.49
2018-07-31T13:20:29.018Z,31.78
2018-07-31T13:22:58.157Z,31.79
2018-07-31T13:25:27.212Z,31.58
2018-07-31T13:27:56.413Z,31.79
2018-07-31T13:30:25.477Z,31.83
2018-07-31T13:32:54.570Z,31.91
2018-07-31T13:35:23.664Z,31.77
2018-07-31T13:37:53.310Z,31.71
2018-07-31T13:40:22.468Z,31.85
2018-07-31T13:42:51.516Z,31.89
2018-07-31T13:45:20.793Z,32.42
2018-07-31T13:47:49.912Z,31.85
2018-07-31T13:50:19.029Z,31.96
2018-07-31T13:52:48.009Z,31.63
2018-07-31T13:55:17.202Z,32.06
2018-07-31T13:57:46.212Z,32.03
2018-07-31T14:00:15.373Z,31.99
2018-07-31T14:02:44.479Z,31.57
2018-07-31T14:05:13.499Z,31.31
2018-07-31T14:07:42.833Z,31.95
2018-07-31T14:10:11.852Z,31.79
2018-07-31T14:12:41.140Z,31.96
2018-07-31T14:15:10.368Z,31.78
2018-07-31T14:17:39.633Z,32.03
2018-07-31T14:20:08.744Z,31.75
2018-07-31T14:22:37.864Z,31.52
2018-07-31T14:25:07.009Z,31.70
2018-07-31T14:27:36.402Z,31.63
2018-07-31T14:30:07.072Z,31.79
2018-07-31T14:32:36.527Z,31.90
2018-07-31T14:35:05.731Z,31.94
2018-07-31T14:37:34.968Z,32.02
2018-07-31T14:40:04.151Z,32.25
2018-07-31T14:42:33.161Z,32.09
2018-07-31T14:45:02.264Z,32.28
2018-07-31T14:47:31.542Z,32.17
2018-07-31T14:50:01.065Z,32.18
2018-07-31T14:52:30.160Z,31.99
2018-07-31T14:54:59.235Z,31.73
2018-07-31T14:57:28.943Z,31.59
2018-07-31T14:59:58.011Z,31.86
2018-07-31T15:02:27.049Z,31.82
2018-07-31T15:04:56.334Z,31.95
2018-07-31T15:07:25.375Z,31.69
2018-07-31T15:09:54.653Z,31.65
2018-07-31T15:12:23.731Z,31.43
2018-07-31T15:14:53.124Z,31.27
2018-07-31T15:17:22.389Z,31.21
2018-07-31T15:19:51.469Z,30.92
2018-07-31T15:22:20.492Z,30.99
2018-07-31T15:24:49.570Z,30.99
2018-07-31T15:27:18.694Z,30.95
2018-07-31T15:29:47.807Z,31.07
2018-07-31T15:32:16.875Z,30.92
2018-07-31T15:34:45.997Z,30.49
2018-07-31T15:37:15.498Z,30.63
2018-07-31T15:39:44.616Z,30.46
2018-07-31T15:42:14.182Z,30.29
2018-07-31T15:44:43.276Z,30.21
2018-07-31T15:47:12.309Z,29.91
2018-07-31T15:49:41.458Z,30.08
2018-07-31T15:52:10.758Z,30.11
2018-07-31T15:54:39.822Z,29.99
2018-07-31T15:57:08.918Z,29.91
2018-07-31T15:59:38.098Z,29.80
2018-07-31T16:02:07.987Z,29.60
2018-07-31T16:04:37.069Z,29.34
2018-07-31T16:07:06.239Z,29.06
2018-07-31T16:09:35.316Z,28.78
2018-07-31T16:12:04.312Z,28.47
2018-07-31T16:14:33.565Z,28.55
2018-07-31T16:17:03.338Z,28.55
2018-07-31T16:19:32.344Z,28.33
2018-07-31T16:22:01.404Z,28.01
2018-07-31T16:24:31.257Z,27.91
2018-07-31T16:27:01.060Z,27.99
2018-07-31T16:29:31.451Z,27.85
2018-07-31T16:32:00.860Z,27.64
2018-07-31T16:34:30.447Z,27.57
2018-07-31T16:36:59.486Z,27.56
2018-07-31T16:39:28.668Z,27.56
2018-07-31T16:41:58.072Z,27.43
2018-07-31T16:44:27.230Z,27.51
2018-07-31T16:46:56.405Z,27.41
2018-07-31T16:49:27.521Z,27.13
2018-07-31T16:51:56.529Z,27.12
2018-07-31T16:54:26.417Z,27.04
2018-07-31T16:56:55.576Z,27.07
2018-07-31T16:59:24.714Z,26.97
2018-07-31T17:01:53.831Z,26.89
2018-07-31T17:04:22.872Z,26.85
2018-07-31T17:06:51.994Z,26.90
2018-07-31T17:09:21.022Z,26.71
2018-07-31T17:11:51.064Z,26.51
2018-07-31T17:14:20.907Z,26.49
2018-07-31T17:16:49.999Z,26.27
2018-07-31T17:19:19.040Z,26.19
2018-07-31T17:21:48.107Z,26.16
2018-07-31T17:24:17.163Z,26.05
2018-07-31T17:26:46.308Z,25.92
2018-07-31T17:29:15.382Z,25.94
2018-07-31T17:31:44.429Z,25.78
2018-07-31T17:34:13.477Z,25.75
2018-07-31T17:36:42.834Z,25.57
2018-07-31T17:39:12.425Z,25.56
2018-07-31T17:41:42.204Z,25.49
2018-07-31T17:44:11.227Z,25.43
2018-07-31T17:46:40.292Z,25.46
2018-07-31T17:49:09.504Z,25.49
2018-07-31T17:51:38.669Z,25.49
2018-07-31T17:54:08.156Z,25.35
2018-07-31T17:56:37.986Z,25.41
2018-07-31T17:59:07.120Z,25.19
2018-07-31T18:01:36.186Z,25.07
2018-07-31T18:04:05.878Z,24.98
2018-07-31T18:06:34.905Z,24.83
2018-07-31T18:09:04.206Z,24.63
2018-07-31T18:11:33.935Z,24.72
2018-07-31T18:14:03.194Z,24.52
2018-07-31T18:16:33.621Z,24.50
2018-07-31T18:19:04.863Z,24.62
2018-07-31T18:21:37.480Z,24.51
2018-07-31T18:24:07.291Z,24.42
2018-07-31T18:26:36.909Z,24.33
2018-07-31T18:29:06.903Z,24.25
2018-07-31T18:31:36.107Z,24.19
2018-07-31T18:34:05.871Z,24.16
2018-07-31T18:36:36.306Z,24.16
2018-07-31T18:39:08.368Z,24.21
2018-07-31T18:41:37.565Z,24.13
2018-07-31T18:44:06.847Z,23.98
2018-07-31T18:46:36.085Z,23.91
2018-07-31T18:49:05.284Z,23.91
2018-07-31T18:51:34.769Z,23.91
2018-07-31T18:54:04.330Z,23.77
2018-07-31T18:56:34.687Z,23.73
2018-07-31T18:59:04.124Z,23.76
2018-07-31T19:01:34.708Z,23.69
2018-07-31T19:04:03.980Z,23.56
2018-07-31T19:06:33.173Z,23.47
2018-07-31T19:09:02.461Z,23.38
2018-07-31T19:11:31.707Z,23.38
2018-07-31T19:14:00.816Z,23.37
2018-07-31T19:16:29.892Z,23.12
2018-07-31T19:18:59.324Z,23.05
2018-07-31T19:21:29.765Z,22.85
2018-07-31T19:23:59.412Z,22.80
2018-07-31T19:26:29.351Z,22.96
2018-07-31T19:28:58.632Z,22.88
2018-07-31T19:31:28.809Z,22.73
2018-07-31T19:33:58.155Z,22.70
2018-07-31T19:36:27.341Z,22.63
2018-07-31T19:38:57.321Z,22.56
2018-07-31T19:41:28.659Z,22.52
2018-07-31T19:43:58.251Z,22.56
2018-07-31T19:46:28.080Z,22.57
2018-07-31T19:48:57.438Z,22.50
2018-07-31T19:51:27.157Z,22.51
2018-07-31T19:53:56.527Z,22.53
2018-07-31T19:56:26.102Z,22.33
2018-07-31T19:58:55.416Z,22.06
2018-07-31T20:01:24.784Z,22.40
2018-07-31T20:03:56.775Z,22.25
2018-07-31T20:06:26.972Z,22.13
2018-07-31T20:08:58.793Z,21.84
2018-07-31T20:11:29.114Z,21.68
2018-07-31T20:13:58.835Z,21.58
2018-07-31T20:16:28.507Z,21.72
2018-07-31T20:18:57.687Z,21.53
2018-07-31T20:21:26.979Z,21.47
2018-07-31T20:23:56.272Z,21.66
2018-07-31T20:26:25.625Z,21.60
2018-07-31T20:28:55.026Z,21.62
2018-07-31T20:31:25.242Z,21.37
2018-07-31T20:33:54.359Z,21.50
2018-07-31T20:36:24.891Z,21.45
2018-07-31T20:38:53.983Z,21.20
2018-07-31T20:41:23.227Z,21.31
2018-07-31T20:43:52.481Z,20.92
2018-07-31T20:46:21.684Z,21.11
2018-07-31T20:48:51.436Z,21.05
2018-07-31T20:51:24.313Z,21.07
2018-07-31T20:53:53.426Z,20.92
2018-07-31T20:56:22.596Z,20.69
2018-07-31T20:58:51.955Z,20.86
2018-07-31T21:01:21.858Z,20.96
2018-07-31T21:03:51.033Z,20.87
2018-07-31T21:06:20.281Z,20.84
2018-07-31T21:08:49.590Z,20.50
2018-07-31T21:11:19.060Z,20.61
2018-07-31T21:13:48.202Z,20.66
2018-07-31T21:16:17.405Z,20.72
2018-07-31T21:18:46.946Z,20.77
2018-07-31T21:21:16.096Z,20.63
2018-07-31T21:23:45.272Z,20.41
2018-07-31T21:26:14.488Z,20.32
2018-07-31T21:28:43.718Z,20.42
2018-07-31T21:31:13.005Z,20.50
2018-07-31T21:33:42.102Z,20.39
2018-07-31T21:36:11.168Z,20.25
2018-07-31T21:38:40.242Z,20.26
2018-07-31T21:41:10.721Z,20.09
2018-07-31T21:43:39.898Z,20.22
2018-07-31T21:46:09.000Z,20.06
2018-07-31T21:48:38.738Z,19.93
2018-07-31T21:51:07.817Z,19.87
2018-07-31T21:53:37.113Z,20.04
2018-07-31T21:56:06.164Z,20.01
2018-07-31T21:58:35.347Z,19.96
2018-07-31T22:01:07.984Z,20.06
2018-07-31T22:03:38.909Z,19.68
2018-07-31T22:06:08.277Z,19.85
2018-07-31T22:08:38.087Z,19.92
2018-07-31T22:11:07.428Z,19.73
2018-07-31T22:13:36.507Z,19.65
2018-07-31T22:16:06.497Z,19.60
2018-07-31T22:18:35.743Z,19.65
2018-07-31T22:21:04.923Z,19.52
2018-07-31T22:23:34.003Z,19.56
2018-07-31T22:26:03.059Z,19.48
2018-07-31T22:28:32.215Z,19.44
2018-07-31T22:31:01.225Z,19.43
2018-07-31T22:33:30.346Z,19.45
2018-07-31T22:35:59.417Z,19.41
2018-07-31T22:38:28.651Z,19.38
2018-07-31T22:40:57.823Z,19.24
2018-07-31T22:43:27.069Z,19.22
2018-07-31T22:45:56.126Z,19.07
2018-07-31T22:48:25.200Z,19.10
2018-07-31T22:50:54.315Z,19.12
2018-07-31T22:53:23.387Z,19.18
2018-07-31T22:55:52.547Z,18.98
2018-07-31T22:58:21.597Z,19.10
2018-07-31T23:00:50.819Z,19.09
2018-07-31T23:03:19.816Z,19.03
2018-07-31T23:05:48.900Z,19.19
2018-07-31T23:08:17.959Z,19.19
2018-07-31T23:10:46.970Z,19.02
2018-07-31T23:13:16.269Z,18.98
2018-07-31T23:15:45.470Z,18.98
2018-07-31T23:18:14.579Z,18.94
2018-07-31T23:20:43.710Z,18.76
2018-07-31T23:23:12.731Z,18.74
2018-07-31T23:25:41.920Z,18.77
2018-07-31T23:28:10.908Z,18.63
2018-07-31T23:30:40.248Z,18.72
2018-07-31T23:33:09.287Z,18.72
2018-07-31T23:35:38.567Z,18.60
2018-07-31T23:38:08.420Z,18.65
2018-07-31T23:40:37.570Z,18.56
2018-07-31T23:43:06.655Z,18.41
2018-07-31T23:45:35.782Z,18.57
2018-07-31T23:48:04.811Z,18.37
2018-07-31T23:50:33.829Z,18.40
2018-07-31T23:53:02.986Z,18.40
2018-07-31T23:55:32.021Z,18.21
2018-07-31T23:58:01.137Z,17.85
